createdAt,value
2018-04-10T00:00:26.611Z,12.30
2018-04-10T00:01:26.602Z,14.50
2018-04-10T00:02:26.599Z,9.80
2018-04-10T00:03:26.586Z,11.40
2018-04-10T00:04:26.578Z,12.90
2018-04-10T00:05:26.571Z,10.80
2018-04-10T00:06:26.569Z,10.90
2018-04-10T00:07:26.555Z,12.30
2018-04-10T00:08:26.555Z,10.80
2018-04-10T00:09:26.544Z,15.60
2018-04-10T00:10:26.534Z,11.20
2018-04-10T00:11:26.521Z,13.50
2018-04-10T00:12:26.513Z,12.20
2018-04-10T00:13:26.506Z,10.50
2018-04-10T00:14:26.503Z,9.90
2018-04-10T00:15:26.490Z,9.90
2018-04-10T00:16:26.481Z,11.10
2018-04-10T00:17:26.480Z,11.90
2018-04-10T00:18:26.469Z,9.50
2018-04-10T00:19:26.462Z,10.20
2018-04-10T00:20:26.455Z,8.70
2018-04-10T00:21:26.446Z,9.60
2018-04-10T00:22:26.436Z,14.30
2018-04-10T00:23:26.422Z,9.30
2018-04-10T00:24:26.415Z,12.30
2018-04-10T00:25:26.409Z,11.20
2018-04-10T00:26:26.405Z,10.70
2018-04-10T00:27:26.391Z,11.60
2018-04-10T00:28:26.383Z,11.40
2018-04-10T00:29:26.374Z,11.30
2018-04-10T00:30:26.368Z,12.20
2018-04-10T00:31:26.360Z,12.10
2018-04-10T00:32:26.357Z,14.20
2018-04-10T00:33:26.347Z,11.60
2018-04-10T00:34:26.335Z,9.10
2018-04-10T00:35:26.326Z,11.30
2018-04-10T00:36:26.317Z,9.40
2018-04-10T00:37:26.315Z,12.80
2018-04-10T00:38:26.302Z,11.40
2018-04-10T00:39:26.295Z,18.20
2018-04-10T00:40:26.284Z,11.30
2018-04-10T00:41:26.276Z,11.40
2018-04-10T00:42:26.271Z,11.10
2018-04-10T00:43:26.258Z,11.70
2018-04-10T00:44:26.250Z,15.50
2018-04-10T00:45:26.249Z,11.40
2018-04-10T00:46:26.232Z,11.20
2018-04-10T00:47:26.225Z,12.20
2018-04-10T00:48:26.217Z,12.00
2018-04-10T00:49:26.212Z,11.00
2018-04-10T00:50:26.206Z,11.30
2018-04-10T00:51:26.194Z,11.20
2018-04-10T00:52:26.189Z,9.60
2018-04-10T00:53:26.176Z,10.90
2018-04-10T00:54:26.166Z,11.30
2018-04-10T00:55:26.164Z,11.00
2018-04-10T00:56:26.153Z,11.20
2018-04-10T00:57:26.142Z,10.50
2018-04-10T00:58:26.135Z,9.40
2018-04-10T00:59:26.132Z,10.20
2018-04-10T01:00:26.117Z,12.20
2018-04-10T01:01:26.109Z,9.20
2018-04-10T01:02:26.100Z,10.70
2018-04-10T01:03:26.092Z,10.40
2018-04-10T01:04:26.082Z,8.80
2018-04-10T01:05:26.074Z,11.30
2018-04-10T01:06:26.067Z,9.40
2018-04-10T01:07:26.065Z,13.70
2018-04-10T01:08:26.049Z,10.70
2018-04-10T01:09:26.043Z,13.00
2018-04-10T01:10:26.031Z,10.70
2018-04-10T01:11:26.029Z,13.00
2018-04-10T01:12:26.016Z,9.60
2018-04-10T01:13:26.007Z,10.40
2018-04-10T01:14:25.998Z,10.70
2018-04-10T01:15:25.991Z,9.40
2018-04-10T01:16:25.983Z,11.90
2018-04-10T01:17:25.976Z,11.60
2018-04-10T01:18:25.964Z,12.80
2018-04-10T01:19:25.958Z,10.90
2018-04-10T01:20:25.948Z,10.30
2018-04-10T01:21:25.937Z,11.30
2018-04-10T01:22:25.930Z,11.50
2018-04-10T01:23:25.930Z,10.00
2018-04-10T01:24:25.913Z,12.60
2018-04-10T01:25:25.903Z,9.30
2018-04-10T01:26:25.896Z,10.80
2018-04-10T01:27:25.892Z,13.70
2018-04-10T01:28:25.885Z,14.10
2018-04-10T01:29:25.875Z,10.50
2018-04-10T01:30:25.868Z,20.30
2018-04-10T01:31:25.858Z,31.80
2018-04-10T01:32:25.843Z,16.20
2018-04-10T01:33:25.837Z,12.90
2018-04-10T01:34:25.829Z,10.30
2018-04-10T01:35:25.823Z,13.60
2018-04-10T01:36:25.815Z,9.40
2018-04-10T01:37:25.799Z,13.80
2018-04-10T01:38:25.795Z,10.70
2018-04-10T01:39:25.787Z,14.70
2018-04-10T01:40:25.779Z,9.60
2018-04-10T01:41:25.763Z,12.30
2018-04-10T01:42:25.756Z,11.70
2018-04-10T01:43:25.745Z,9.10
2018-04-10T01:44:25.738Z,11.10
2018-04-10T01:45:25.728Z,12.40
2018-04-10T01:46:25.728Z,8.50
2018-04-10T01:47:25.711Z,10.80
2018-04-10T01:48:25.703Z,12.20
2018-04-10T01:49:25.694Z,12.10
2018-04-10T01:50:25.684Z,11.20
2018-04-10T01:51:25.937Z,9.40
2018-04-10T01:52:25.666Z,11.80
2018-04-10T01:53:25.663Z,11.20
2018-04-10T01:54:25.657Z,9.00
2018-04-10T01:55:25.641Z,8.90
2018-04-10T01:56:25.639Z,11.50
2018-04-10T01:57:25.622Z,8.50
2018-04-10T01:58:25.615Z,9.50
2018-04-10T01:59:25.615Z,12.00
2018-04-10T02:00:25.598Z,10.20
2018-04-10T02:01:25.590Z,9.70
2018-04-10T02:02:25.579Z,9.50
2018-04-10T02:03:25.576Z,10.70
2018-04-10T02:04:25.565Z,13.20
2018-04-10T02:05:25.552Z,8.40
2018-04-10T02:06:25.542Z,10.80
2018-04-10T02:07:25.534Z,11.30
2018-04-10T02:08:25.530Z,9.30
2018-04-10T02:09:25.536Z,8.40
2018-04-10T02:10:25.509Z,10.90
2018-04-10T02:11:25.505Z,10.10
2018-04-10T02:12:25.496Z,10.10
2018-04-10T02:13:25.488Z,8.50
2018-04-10T02:14:25.478Z,9.00
2018-04-10T02:15:25.462Z,12.10
2018-04-10T02:16:25.452Z,11.70
2018-04-10T02:17:25.456Z,10.10
2018-04-10T02:18:25.436Z,8.10
2018-04-10T02:19:25.433Z,13.70
2018-04-10T02:20:25.418Z,14.10
2018-04-10T02:21:25.408Z,11.60
2018-04-10T02:22:25.400Z,11.30
2018-04-10T02:23:25.393Z,10.60
2018-04-10T02:24:25.387Z,10.60
2018-04-10T02:25:25.378Z,10.90
2018-04-10T02:26:25.364Z,11.30
2018-04-10T02:27:25.357Z,12.40
2018-04-10T02:28:25.350Z,10.60
2018-04-10T02:29:25.341Z,11.80
2018-04-10T02:30:25.328Z,12.70
2018-04-10T02:31:25.317Z,10.60
2018-04-10T02:32:25.312Z,11.10
2018-04-10T02:33:25.300Z,10.50
2018-04-10T02:34:25.323Z,9.90
2018-04-10T02:35:25.281Z,11.80
2018-04-10T02:36:25.274Z,11.50
2018-04-10T02:37:25.271Z,9.70
2018-04-10T02:38:25.253Z,12.40
2018-04-10T02:39:25.249Z,12.00
2018-04-10T02:40:25.240Z,10.80
2018-04-10T02:41:25.227Z,9.20
2018-04-10T02:42:25.216Z,15.70
2018-04-10T02:43:25.207Z,9.80
2018-04-10T02:44:25.216Z,14.10
2018-04-10T02:45:25.188Z,10.60
2018-04-10T02:46:25.185Z,13.60
2018-04-10T02:47:25.171Z,10.10
2018-04-10T02:48:25.161Z,12.80
2018-04-10T02:49:25.150Z,12.80
2018-04-10T02:50:25.141Z,11.80
2018-04-10T02:51:25.133Z,11.70
2018-04-10T02:52:25.130Z,11.40
2018-04-10T02:53:25.115Z,9.70
2018-04-10T02:54:25.106Z,13.60
2018-04-10T02:55:25.095Z,9.70
2018-04-10T02:56:25.089Z,12.00
2018-04-10T02:57:25.078Z,11.40
2018-04-10T02:58:25.069Z,12.00
2018-04-10T02:59:25.057Z,10.20
2018-04-10T03:00:25.049Z,11.00
2018-04-10T03:01:25.037Z,12.60
2018-04-10T03:02:25.029Z,9.20
2018-04-10T03:03:25.022Z,8.70
2018-04-10T03:04:25.010Z,11.50
2018-04-10T03:05:25.005Z,10.40
2018-04-10T03:06:24.991Z,12.10
2018-04-10T03:07:24.981Z,11.70
2018-04-10T03:08:24.974Z,14.50
2018-04-10T03:09:24.966Z,11.90
2018-04-10T03:10:24.954Z,11.50
2018-04-10T03:11:24.948Z,11.20
2018-04-10T03:12:24.933Z,13.80
2018-04-10T03:13:24.925Z,10.10
2018-04-10T03:14:24.914Z,12.60
2018-04-10T03:15:24.908Z,13.00
2018-04-10T03:16:24.902Z,12.10
2018-04-10T03:17:24.887Z,10.40
2018-04-10T03:18:24.879Z,14.30
2018-04-10T03:19:24.866Z,12.60
2018-04-10T03:20:24.859Z,13.40
2018-04-10T03:21:24.845Z,10.50
2018-04-10T03:22:24.837Z,13.20
2018-04-10T03:23:24.830Z,12.50
2018-04-10T03:24:24.826Z,11.30
2018-04-10T03:25:24.808Z,13.90
2018-04-10T03:26:24.804Z,11.60
2018-04-10T03:27:24.790Z,11.50
2018-04-10T03:28:24.779Z,10.70
2018-04-10T03:29:24.768Z,10.10
2018-04-10T03:30:24.759Z,11.90
2018-04-10T03:31:24.748Z,11.70
2018-04-10T03:32:24.745Z,11.00
2018-04-10T03:33:24.729Z,11.60
2018-04-10T03:34:24.728Z,10.30
2018-04-10T03:35:24.715Z,10.80
2018-04-10T03:36:24.706Z,10.50
2018-04-10T03:37:24.695Z,12.80
2018-04-10T03:38:24.681Z,12.30
2018-04-10T03:39:24.671Z,9.70
2018-04-10T03:40:24.661Z,11.80
2018-04-10T03:41:24.653Z,10.90
2018-04-10T03:42:24.646Z,10.60
2018-04-10T03:43:24.631Z,12.50
2018-04-10T03:44:24.621Z,13.50
2018-04-10T03:45:24.615Z,14.10
2018-04-10T03:46:24.599Z,12.50
2018-04-10T03:47:24.599Z,11.80
2018-04-10T03:48:24.587Z,13.40
2018-04-10T03:49:24.572Z,13.90
2018-04-10T03:50:24.560Z,14.50
2018-04-10T03:51:24.549Z,13.20
2018-04-10T03:52:24.539Z,15.00
2018-04-10T03:53:24.531Z,15.40
2018-04-10T03:54:24.518Z,17.90
2018-04-10T03:55:24.508Z,16.60
2018-04-10T03:56:24.499Z,14.90
2018-04-10T03:57:24.488Z,11.40
2018-04-10T03:58:24.476Z,11.70
2018-04-10T03:59:24.466Z,12.00
2018-04-10T04:00:24.464Z,10.60
2018-04-10T04:01:24.451Z,11.40
2018-04-10T04:02:24.441Z,13.00
2018-04-10T04:03:24.432Z,13.30
2018-04-10T04:04:24.416Z,13.40
2018-04-10T04:05:24.410Z,12.80
2018-04-10T04:06:24.397Z,13.30
2018-04-10T04:07:24.383Z,13.80
2018-04-10T04:08:24.373Z,14.10
2018-04-10T04:09:24.363Z,16.60
2018-04-10T04:10:24.362Z,13.60
2018-04-10T04:11:24.344Z,15.00
2018-04-10T04:12:24.337Z,12.10
2018-04-10T04:13:24.319Z,12.00
2018-04-10T04:14:24.317Z,12.10
2018-04-10T04:15:24.300Z,13.20
2018-04-10T04:16:24.291Z,12.90
2018-04-10T04:17:24.284Z,11.90
2018-04-10T04:18:24.276Z,13.70
2018-04-10T04:19:24.259Z,14.00
2018-04-10T04:20:24.249Z,16.90
2018-04-10T04:21:24.244Z,13.80
2018-04-10T04:22:24.230Z,13.90
2018-04-10T04:23:24.226Z,13.70
2018-04-10T04:24:24.207Z,14.90
2018-04-10T04:25:24.198Z,9.90
2018-04-10T04:26:24.187Z,12.30
2018-04-10T04:27:24.182Z,13.30
2018-04-10T04:28:24.174Z,14.10
2018-04-10T04:29:24.155Z,15.70
2018-04-10T04:30:24.148Z,13.10
2018-04-10T04:31:24.137Z,13.60
2018-04-10T04:32:24.133Z,14.60
2018-04-10T04:33:24.116Z,12.80
2018-04-10T04:34:24.106Z,10.90
2018-04-10T04:35:24.098Z,11.30
2018-04-10T04:36:24.093Z,11.60
2018-04-10T04:37:24.073Z,15.20
2018-04-10T04:38:24.065Z,13.00
2018-04-10T04:39:24.056Z,12.20
2018-04-10T04:40:24.045Z,16.30
2018-04-10T04:41:24.037Z,14.80
2018-04-10T04:42:24.031Z,15.00
2018-04-10T04:43:24.012Z,13.40
2018-04-10T04:44:24.009Z,13.60
2018-04-10T04:45:23.991Z,14.20
2018-04-10T04:46:23.985Z,14.00
2018-04-10T04:47:23.979Z,19.60
2018-04-10T04:48:23.961Z,16.60
2018-04-10T04:49:23.955Z,15.30
2018-04-10T04:50:23.938Z,14.40
2018-04-10T04:51:23.928Z,15.90
2018-04-10T04:52:23.924Z,13.00
2018-04-10T04:53:23.905Z,12.40
2018-04-10T04:54:23.899Z,13.60
2018-04-10T04:55:23.886Z,12.30
2018-04-10T04:56:23.875Z,13.80
2018-04-10T04:57:23.865Z,13.60
2018-04-10T04:58:23.854Z,11.10
2018-04-10T04:59:23.850Z,12.60
2018-04-10T05:00:23.833Z,14.60
2018-04-10T05:01:23.825Z,13.60
2018-04-10T05:02:23.811Z,14.30
2018-04-10T05:03:23.798Z,13.40
2018-04-10T05:04:23.792Z,14.10
2018-04-10T05:05:23.784Z,13.30
2018-04-10T05:06:23.774Z,11.70
2018-04-10T05:07:23.757Z,14.50
2018-04-10T05:08:23.785Z,16.30
2018-04-10T05:09:23.737Z,17.90
2018-04-10T05:10:23.729Z,15.60
2018-04-10T05:11:23.724Z,11.20
2018-04-10T05:12:23.711Z,15.40
2018-04-10T05:13:23.695Z,14.30
2018-04-10T05:14:23.682Z,12.80
2018-04-10T05:15:23.707Z,11.20
2018-04-10T05:16:23.663Z,18.10
2018-04-10T05:17:23.655Z,12.80
2018-04-10T05:18:23.642Z,13.40
2018-04-10T05:19:23.632Z,16.20
2018-04-10T05:20:23.624Z,14.70
2018-04-10T05:21:23.609Z,12.50
2018-04-10T05:22:23.605Z,13.70
2018-04-10T05:23:23.589Z,17.80
2018-04-10T05:24:23.580Z,15.50
2018-04-10T05:25:23.571Z,17.70
2018-04-10T05:26:23.564Z,15.60
2018-04-10T05:27:23.553Z,13.80
2018-04-10T05:28:23.544Z,14.70
2018-04-10T05:29:23.527Z,17.50
2018-04-10T05:30:23.517Z,14.00
2018-04-10T05:31:23.503Z,13.30
2018-04-10T05:32:23.496Z,14.20
2018-04-10T05:33:23.483Z,13.00
2018-04-10T05:34:23.473Z,12.40
2018-04-10T05:35:23.461Z,12.00
2018-04-10T05:36:23.453Z,11.80
2018-04-10T05:37:23.449Z,13.00
2018-04-10T05:38:23.432Z,12.00
2018-04-10T05:39:23.420Z,12.20
2018-04-10T05:40:23.412Z,13.00
2018-04-10T05:41:23.400Z,11.60
2018-04-10T05:42:23.392Z,15.00
2018-04-10T05:43:23.385Z,13.50
2018-04-10T05:44:23.369Z,13.20
2018-04-10T05:45:23.365Z,14.90
2018-04-10T05:46:23.349Z,14.60
2018-04-10T05:47:23.340Z,13.10
2018-04-10T05:48:23.328Z,15.60
2018-04-10T05:49:23.317Z,15.90
2018-04-10T05:50:23.317Z,12.70
2018-04-10T05:51:23.304Z,13.70
2018-04-10T05:52:23.288Z,13.30
2018-04-10T05:53:23.278Z,12.90
2018-04-10T05:54:23.267Z,10.50
2018-04-10T05:55:23.257Z,14.60
2018-04-10T05:56:23.247Z,11.10
2018-04-10T05:57:23.237Z,13.40
2018-04-10T05:58:23.228Z,12.60
2018-04-10T05:59:23.247Z,14.70
2018-04-10T06:00:23.206Z,13.40
2018-04-10T06:01:23.199Z,15.20
2018-04-10T06:02:23.182Z,12.20
2018-04-10T06:03:23.172Z,12.70
2018-04-10T06:04:23.172Z,15.70
2018-04-10T06:05:23.153Z,16.20
2018-04-10T06:06:23.147Z,14.10
2018-04-10T06:07:23.136Z,15.80
2018-04-10T06:08:23.132Z,16.20
2018-04-10T06:09:23.115Z,11.90
2018-04-10T06:10:23.107Z,15.30
2018-04-10T06:11:23.102Z,11.00
2018-04-10T06:12:23.087Z,13.80
2018-04-10T06:13:23.079Z,15.70
2018-04-10T06:14:23.067Z,14.40
2018-04-10T06:15:23.060Z,12.30
2018-04-10T06:16:23.049Z,14.00
2018-04-10T06:17:23.039Z,13.60
2018-04-10T06:18:23.037Z,11.10
2018-04-10T06:19:23.024Z,12.40
2018-04-10T06:20:23.015Z,11.90
2018-04-10T06:21:23.053Z,14.40
2018-04-10T06:22:22.995Z,14.60
2018-04-10T06:23:22.985Z,13.20
2018-04-10T06:24:22.976Z,12.10
2018-04-10T06:25:22.972Z,16.00
2018-04-10T06:26:22.966Z,13.50
2018-04-10T06:27:22.951Z,13.00
2018-04-10T06:28:22.946Z,13.50
2018-04-10T06:29:22.936Z,14.90
2018-04-10T06:30:22.925Z,18.30
2018-04-10T06:31:22.917Z,12.20
2018-04-10T06:32:22.909Z,15.20
2018-04-10T06:33:22.907Z,16.70
2018-04-10T06:34:22.891Z,15.30
2018-04-10T06:35:22.882Z,12.40
2018-04-10T06:36:22.883Z,11.70
2018-04-10T06:37:22.886Z,15.20
2018-04-10T06:38:22.867Z,12.80
2018-04-10T06:39:22.847Z,11.70
2018-04-10T06:40:22.840Z,13.40
2018-04-10T06:41:22.833Z,13.90
2018-04-10T06:42:22.826Z,13.10
2018-04-10T06:43:22.818Z,13.70
2018-04-10T06:44:22.813Z,14.60
2018-04-10T06:45:22.804Z,12.30
2018-04-10T06:46:22.791Z,12.50
2018-04-10T06:47:22.788Z,10.70
2018-04-10T06:48:22.775Z,12.60
2018-04-10T06:49:22.768Z,12.70
2018-04-10T06:50:22.765Z,12.30
2018-04-10T06:51:22.754Z,13.00
2018-04-10T06:52:22.747Z,14.50
2018-04-10T06:53:22.733Z,12.10
2018-04-10T06:54:22.727Z,15.40
2018-04-10T06:55:22.720Z,14.30
2018-04-10T06:56:22.716Z,11.10
2018-04-10T06:57:22.709Z,14.70
2018-04-10T06:58:22.697Z,14.50
2018-04-10T06:59:22.699Z,10.50
2018-04-10T07:00:22.676Z,10.60
2018-04-10T07:01:22.669Z,15.30
2018-04-10T07:02:22.660Z,11.60
2018-04-10T07:03:22.659Z,12.00
2018-04-10T07:04:22.647Z,12.60
2018-04-10T07:05:22.638Z,12.40
2018-04-10T07:06:22.628Z,12.60
2018-04-10T07:07:22.625Z,13.10
2018-04-10T07:08:22.615Z,11.30
2018-04-10T07:09:22.604Z,13.00
2018-04-10T07:10:22.600Z,11.20
2018-04-10T07:11:22.598Z,12.20
2018-04-10T07:12:22.582Z,13.70
2018-04-10T07:13:22.634Z,8.50
2018-04-10T07:14:22.564Z,13.70
2018-04-10T07:15:22.561Z,13.00
2018-04-10T07:16:22.550Z,12.80
2018-04-10T07:17:22.552Z,13.10
2018-04-10T07:18:22.536Z,15.40
2018-04-10T07:19:22.533Z,15.50
2018-04-10T07:20:22.519Z,15.40
2018-04-10T07:21:22.512Z,16.10
2018-04-10T07:22:22.511Z,12.20
2018-04-10T07:23:22.504Z,16.40
2018-04-10T07:24:22.498Z,18.00
2018-04-10T07:25:22.482Z,14.90
2018-04-10T07:26:22.482Z,17.40
2018-04-10T07:27:22.469Z,23.40
2018-04-10T07:28:22.463Z,18.10
2018-04-10T07:29:22.459Z,12.60
2018-04-10T07:30:22.449Z,11.60
2018-04-10T07:31:22.450Z,17.20
2018-04-10T07:32:22.435Z,16.00
2018-04-10T07:33:22.426Z,15.30
2018-04-10T07:34:22.421Z,16.00
2018-04-10T07:35:22.414Z,14.80
2018-04-10T07:36:22.408Z,13.90
2018-04-10T07:37:22.407Z,11.40
2018-04-10T07:38:22.396Z,11.50
2018-04-10T07:39:22.388Z,11.30
2018-04-10T07:40:22.386Z,11.80
2018-04-10T07:41:22.375Z,15.70
2018-04-10T07:42:22.374Z,10.70
2018-04-10T07:43:22.371Z,18.60
2018-04-10T07:44:22.355Z,13.40
2018-04-10T07:45:22.349Z,12.40
2018-04-10T07:46:22.342Z,12.40
2018-04-10T07:47:22.342Z,11.30
2018-04-10T07:48:22.330Z,14.60
2018-04-10T07:49:22.320Z,18.20
2018-04-10T07:50:22.318Z,15.10
2018-04-10T07:51:22.326Z,16.50
2018-04-10T07:52:22.312Z,15.50
2018-04-10T07:53:22.295Z,15.50
2018-04-10T07:54:22.294Z,12.10
2018-04-10T07:55:22.283Z,13.30
2018-04-10T07:56:22.276Z,16.30
2018-04-10T07:57:22.273Z,17.20
2018-04-10T07:58:22.262Z,15.30
2018-04-10T07:59:22.258Z,14.40
2018-04-10T08:00:22.248Z,16.60
2018-04-10T08:01:22.243Z,16.70
2018-04-10T08:02:22.247Z,14.90
2018-04-10T08:03:22.277Z,15.00
2018-04-10T08:04:22.231Z,15.90
2018-04-10T08:05:22.217Z,15.90
2018-04-10T08:06:22.210Z,21.00
2018-04-10T08:07:22.209Z,15.30
2018-04-10T08:08:22.203Z,14.70
2018-04-10T08:09:22.189Z,17.70
2018-04-10T08:10:22.186Z,16.30
2018-04-10T08:11:22.182Z,18.10
2018-04-10T08:12:22.178Z,18.10
2018-04-10T08:13:22.164Z,14.40
2018-04-10T08:14:22.165Z,21.70
2018-04-10T08:15:22.156Z,15.30
2018-04-10T08:16:22.153Z,17.90
2018-04-10T08:17:22.144Z,17.40
2018-04-10T08:18:22.135Z,19.50
2018-04-10T08:19:22.128Z,19.20
2018-04-10T08:20:22.125Z,16.30
2018-04-10T08:21:22.113Z,18.10
2018-04-10T08:22:22.107Z,15.50
2018-04-10T08:23:22.097Z,16.20
2018-04-10T08:24:22.091Z,20.00
2018-04-10T08:25:22.085Z,18.90
2018-04-10T08:26:22.078Z,17.90
2018-04-10T08:27:22.073Z,17.00
2018-04-10T08:28:22.078Z,20.10
2018-04-10T08:29:22.056Z,18.00
2018-04-10T08:30:22.057Z,21.20
2018-04-10T08:31:22.042Z,18.00
2018-04-10T08:32:22.036Z,14.40
2018-04-10T08:33:22.031Z,19.60
2018-04-10T08:34:22.023Z,16.30
2018-04-10T08:35:22.015Z,19.40
2018-04-10T08:36:22.013Z,17.20
2018-04-10T08:37:22.001Z,19.40
2018-04-10T08:38:21.996Z,17.30
2018-04-10T08:39:21.989Z,18.90
2018-04-10T08:40:21.990Z,21.10
2018-04-10T08:41:21.974Z,18.00
2018-04-10T08:42:21.973Z,19.00
2018-04-10T08:43:21.968Z,18.40
2018-04-10T08:44:21.962Z,20.40
2018-04-10T08:45:21.949Z,18.50
2018-04-10T08:46:21.953Z,20.70
2018-04-10T08:47:21.933Z,20.90
2018-04-10T08:48:21.934Z,20.60
2018-04-10T08:49:21.920Z,18.30
2018-04-10T08:50:21.915Z,19.80
2018-04-10T08:51:21.911Z,16.60
2018-04-10T08:52:21.905Z,20.60
2018-04-10T08:53:21.897Z,15.40
2018-04-10T08:54:21.895Z,17.30
2018-04-10T08:55:21.885Z,17.10
2018-04-10T08:56:21.877Z,16.40
2018-04-10T08:57:21.869Z,15.70
2018-04-10T08:58:21.868Z,15.00
2018-04-10T08:59:21.858Z,17.80
2018-04-10T09:00:21.852Z,20.10
2018-04-10T09:01:21.846Z,15.80
2018-04-10T09:02:21.843Z,16.30
2018-04-10T09:03:21.835Z,17.30
2018-04-10T09:04:21.833Z,19.50
2018-04-10T09:05:21.826Z,16.80
2018-04-10T09:06:21.813Z,15.70
2018-04-10T09:07:21.809Z,16.30
2018-04-10T09:08:21.806Z,15.00
2018-04-10T09:09:21.845Z,24.50
2018-04-10T09:10:21.795Z,16.70
2018-04-10T09:11:21.783Z,15.70
2018-04-10T09:12:21.783Z,17.30
2018-04-10T09:13:21.779Z,17.50
2018-04-10T09:14:21.774Z,15.90
2018-04-10T09:15:21.757Z,18.70
2018-04-10T09:16:21.754Z,17.50
2018-04-10T09:17:21.746Z,18.20
2018-04-10T09:18:21.737Z,17.30
2018-04-10T09:19:21.732Z,17.40
2018-04-10T09:20:21.726Z,16.00
2018-04-10T09:21:21.721Z,17.00
2018-04-10T09:22:21.721Z,18.40
2018-04-10T09:23:21.712Z,16.10
2018-04-10T09:24:21.710Z,18.40
2018-04-10T09:25:21.701Z,17.10
2018-04-10T09:26:21.697Z,20.70
2018-04-10T09:27:21.693Z,20.10
2018-04-10T09:28:21.684Z,14.70
2018-04-10T09:29:21.678Z,20.00
2018-04-10T09:30:21.675Z,18.00
2018-04-10T09:31:21.670Z,15.70
2018-04-10T09:32:21.662Z,18.50
2018-04-10T09:33:21.657Z,18.00
2018-04-10T09:34:21.650Z,19.30
2018-04-10T09:35:21.645Z,13.70
2018-04-10T09:36:21.639Z,15.60
2018-04-10T09:37:21.633Z,18.60
2018-04-10T09:38:21.633Z,18.40
2018-04-10T09:39:21.630Z,18.70
2018-04-10T09:40:21.625Z,17.10
2018-04-10T09:41:21.614Z,20.60
2018-04-10T09:42:21.619Z,19.30
2018-04-10T09:43:21.607Z,16.90
2018-04-10T09:44:21.597Z,18.00
2018-04-10T09:45:21.594Z,17.80
2018-04-10T09:46:21.587Z,17.10
2018-04-10T09:47:21.588Z,19.80
2018-04-10T09:48:21.577Z,18.40
2018-04-10T09:49:21.571Z,17.50
2018-04-10T09:50:21.564Z,17.80
2018-04-10T09:51:21.567Z,16.80
2018-04-10T09:52:21.554Z,16.70
2018-04-10T09:53:21.554Z,18.20
2018-04-10T09:54:21.542Z,16.30
2018-04-10T09:55:21.545Z,15.90
2018-04-10T09:56:21.536Z,16.10
2018-04-10T09:57:21.525Z,16.30
2018-04-10T09:58:21.527Z,14.80
2018-04-10T09:59:21.513Z,22.30
2018-04-10T10:00:21.507Z,16.50
2018-04-10T10:01:21.501Z,16.80
2018-04-10T10:02:21.511Z,14.90
2018-04-10T10:03:21.496Z,18.60
2018-04-10T10:04:21.495Z,16.40
2018-04-10T10:05:21.481Z,17.80
2018-04-10T10:06:21.472Z,17.00
2018-04-10T10:07:21.466Z,15.90
2018-04-10T10:08:21.467Z,14.70
2018-04-10T10:09:21.455Z,17.60
2018-04-10T10:10:21.450Z,15.50
2018-04-10T10:11:21.448Z,15.20
2018-04-10T10:12:21.440Z,17.20
2018-04-10T10:13:21.431Z,16.10
2018-04-10T10:14:21.424Z,15.60
2018-04-10T10:15:21.418Z,15.30
2018-04-10T10:16:21.413Z,18.60
2018-04-10T10:17:21.408Z,15.30
2018-04-10T10:18:21.401Z,15.90
2018-04-10T10:19:21.394Z,15.90
2018-04-10T10:20:21.388Z,15.80
2018-04-10T10:21:21.383Z,15.80
2018-04-10T10:22:21.377Z,18.60
2018-04-10T10:23:21.372Z,14.50
2018-04-10T10:24:21.365Z,15.40
2018-04-10T10:25:21.359Z,18.30
2018-04-10T10:26:21.354Z,15.80
2018-04-10T10:27:21.350Z,15.60
2018-04-10T10:28:21.341Z,16.70
2018-04-10T10:29:21.341Z,16.00
2018-04-10T10:30:21.336Z,14.40
2018-04-10T10:31:21.325Z,16.20
2018-04-10T10:32:21.319Z,17.20
2018-04-10T10:33:21.324Z,15.20
2018-04-10T10:34:21.312Z,12.80
2018-04-10T10:35:21.305Z,14.20
2018-04-10T10:36:21.299Z,12.70
2018-04-10T10:37:21.294Z,15.60
2018-04-10T10:38:21.289Z,15.60
2018-04-10T10:39:21.284Z,16.00
2018-04-10T10:40:21.273Z,14.80
2018-04-10T10:41:21.266Z,17.50
2018-04-10T10:42:21.266Z,17.20
2018-04-10T10:43:21.258Z,13.50
2018-04-10T10:44:21.250Z,15.00
2018-04-10T10:45:21.244Z,15.70
2018-04-10T10:46:21.240Z,13.50
2018-04-10T10:47:21.238Z,15.30
2018-04-10T10:48:21.227Z,12.50
2018-04-10T10:49:21.224Z,14.50
2018-04-10T10:50:21.218Z,12.00
2018-04-10T10:51:21.214Z,14.80
2018-04-10T10:52:21.215Z,16.60
2018-04-10T10:53:21.209Z,10.70
2018-04-10T10:54:21.198Z,15.20
2018-04-10T10:55:21.194Z,9.40
2018-04-10T10:56:21.192Z,12.00
2018-04-10T10:57:21.194Z,10.00
2018-04-10T10:58:21.180Z,9.50
2018-04-10T10:59:21.183Z,9.40
2018-04-10T11:00:21.168Z,6.80
2018-04-10T11:01:21.164Z,6.40
2018-04-10T11:02:21.158Z,11.20
2018-04-10T11:03:21.156Z,7.00
2018-04-10T11:04:21.150Z,6.70
2018-04-10T11:05:21.151Z,6.80
2018-04-10T11:06:21.139Z,4.80
2018-04-10T11:07:21.133Z,6.30
2018-04-10T11:08:21.128Z,8.00
2018-04-10T11:09:21.122Z,12.40
2018-04-10T11:10:21.115Z,4.60
2018-04-10T11:11:21.112Z,5.40
2018-04-10T11:12:21.104Z,5.70
2018-04-10T11:13:21.105Z,7.00
2018-04-10T11:14:21.102Z,5.20
2018-04-10T11:15:21.088Z,6.40
2018-04-10T11:16:21.086Z,6.30
2018-04-10T11:17:21.081Z,5.40
2018-04-10T11:18:21.069Z,3.30
2018-04-10T11:19:21.068Z,9.10
2018-04-10T11:20:21.058Z,5.70
2018-04-10T11:21:21.057Z,4.40
2018-04-10T11:22:21.046Z,3.70
2018-04-10T11:23:21.044Z,5.70
2018-04-10T11:24:21.036Z,4.10
2018-04-10T11:25:21.036Z,4.20
2018-04-10T11:26:21.023Z,4.50
2018-04-10T11:27:21.019Z,4.40
2018-04-10T11:28:21.011Z,4.70
2018-04-10T11:29:21.005Z,5.50
2018-04-10T11:30:21.008Z,5.30
2018-04-10T11:31:21.003Z,4.60
2018-04-10T11:32:20.990Z,3.30
2018-04-10T11:33:20.982Z,4.00
2018-04-10T11:34:20.975Z,3.80
2018-04-10T11:35:20.970Z,2.40
2018-04-10T11:36:20.972Z,3.10
2018-04-10T11:37:20.961Z,6.30
2018-04-10T11:38:20.954Z,4.30
2018-04-10T11:39:20.950Z,3.80
2018-04-10T11:40:20.937Z,4.00
2018-04-10T11:41:20.930Z,3.70
2018-04-10T11:42:20.927Z,3.50
2018-04-10T11:43:20.920Z,3.00
2018-04-10T11:44:20.918Z,4.90
2018-04-10T11:45:20.904Z,2.20
2018-04-10T11:46:20.904Z,6.90
2018-04-10T11:47:20.896Z,3.10
2018-04-10T11:48:20.892Z,4.20
2018-04-10T11:49:20.877Z,3.90
2018-04-10T11:50:20.877Z,4.80
2018-04-10T11:51:20.870Z,3.30
2018-04-10T11:52:20.857Z,2.80
2018-04-10T11:53:20.851Z,6.40
2018-04-10T11:54:20.845Z,3.50
2018-04-10T11:55:20.837Z,2.80
2018-04-10T11:56:20.837Z,2.60
2018-04-10T11:57:20.827Z,3.10
2018-04-10T11:58:20.814Z,3.90
2018-04-10T11:59:20.817Z,3.60
2018-04-10T12:00:20.803Z,2.90
2018-04-10T12:01:20.792Z,1.90
2018-04-10T12:02:20.787Z,4.70
2018-04-10T12:03:20.779Z,3.00
2018-04-10T12:04:20.772Z,3.50
2018-04-10T12:05:20.767Z,6.80
2018-04-10T12:06:20.759Z,2.70
2018-04-10T12:07:20.757Z,4.00
2018-04-10T12:08:20.744Z,2.10
2018-04-10T12:09:20.742Z,1.90
2018-04-10T12:10:20.730Z,2.00
2018-04-10T12:11:20.731Z,3.10
2018-04-10T12:12:20.716Z,1.50
2018-04-10T12:13:20.707Z,1.70
2018-04-10T12:14:20.706Z,2.30
2018-04-10T12:15:20.694Z,2.20
2018-04-10T12:16:20.693Z,3.70
2018-04-10T12:17:20.679Z,2.40
2018-04-10T12:18:20.673Z,2.90
2018-04-10T12:19:20.665Z,3.50
2018-04-10T12:20:20.659Z,2.60
2018-04-10T12:21:20.653Z,3.20
2018-04-10T12:22:20.643Z,2.60
2018-04-10T12:23:20.636Z,8.20
2018-04-10T12:24:20.663Z,2.80
2018-04-10T12:25:20.619Z,2.20
2018-04-10T12:26:20.622Z,1.90
2018-04-10T12:27:20.607Z,1.90
2018-04-10T12:28:20.599Z,2.30
2018-04-10T12:29:20.593Z,1.40
2018-04-10T12:30:20.584Z,2.50
2018-04-10T12:31:20.585Z,2.30
2018-04-10T12:32:20.573Z,2.30
2018-04-10T12:33:20.569Z,1.80
2018-04-10T12:34:20.556Z,1.30
2018-04-10T12:35:20.551Z,1.80
2018-04-10T12:36:20.550Z,3.50
2018-04-10T12:37:20.535Z,3.60
2018-04-10T12:38:20.529Z,4.60
2018-04-10T12:39:20.521Z,1.40
2018-04-10T12:40:20.522Z,2.90
2018-04-10T12:41:20.511Z,1.70
2018-04-10T12:42:20.505Z,1.80
2018-04-10T12:43:20.500Z,2.70
2018-04-10T12:44:20.486Z,2.20
2018-04-10T12:45:20.476Z,1.40
2018-04-10T12:46:20.478Z,2.20
2018-04-10T12:47:20.462Z,1.50
2018-04-10T12:48:20.457Z,2.30
2018-04-10T12:49:20.448Z,3.80
2018-04-10T12:50:20.442Z,1.30
2018-04-10T12:51:20.435Z,1.70
2018-04-10T12:52:20.436Z,2.70
2018-04-10T12:53:20.419Z,2.00
2018-04-10T12:54:20.417Z,3.10
2018-04-10T12:55:20.405Z,1.70
2018-04-10T12:56:20.403Z,1.70
2018-04-10T12:57:20.393Z,1.90
2018-04-10T12:58:20.382Z,1.80